sensor_id;sensor_type;location;lat;lon;timestamp;pressure;altitude;pressure_sealevel;temperature;humidity
47716;BME280;33476;50.984;3.538;2023-08-08T00:00:36;101702.16;;;18.19;62.61
47716;BME280;33476;50.984;3.538;2023-08-08T00:03:02;101705.56;;;18.21;62.63
47716;BME280;33476;50.984;3.538;2023-08-08T00:05:27;101703.63;;;18.11;62.79
47716;BME280;33476;50.984;3.538;2023-08-08T00:07:52;101710.81;;;18.09;62.86
47716;BME280;33476;50.984;3.538;2023-08-08T00:10:18;101706.47;;;18.08;63.22
47716;BME280;33476;50.984;3.538;2023-08-08T00:12:43;101702.25;;;18.05;63.26
47716;BME280;33476;50.984;3.538;2023-08-08T00:15:09;101702.31;;;18.04;63.30
47716;BME280;33476;50.984;3.538;2023-08-08T00:17:34;101700.56;;;18.04;63.25
47716;BME280;33476;50.984;3.538;2023-08-08T00:20:00;101692.63;;;18.04;63.29
47716;BME280;33476;50.984;3.538;2023-08-08T00:22:25;101693.53;;;18.03;63.48
47716;BME280;33476;50.984;3.538;2023-08-08T00:24:51;101689.97;;;18.04;63.45
47716;BME280;33476;50.984;3.538;2023-08-08T00:27:16;101693.47;;;18.05;63.49
47716;BME280;33476;50.984;3.538;2023-08-08T00:29:42;101692.63;;;18.04;63.48
47716;BME280;33476;50.984;3.538;2023-08-08T00:32:07;101695.44;;;18.01;63.68
47716;BME280;33476;50.984;3.538;2023-08-08T00:34:32;101692.34;;;17.94;63.92
47716;BME280;33476;50.984;3.538;2023-08-08T00:36:58;101696.69;;;17.95;64.01
47716;BME280;33476;50.984;3.538;2023-08-08T00:39:23;101698.56;;;17.93;64.19
47716;BME280;33476;50.984;3.538;2023-08-08T00:41:48;101696.16;;;17.90;64.36
47716;BME280;33476;50.984;3.538;2023-08-08T00:44:14;101685.56;;;17.90;64.45
47716;BME280;33476;50.984;3.538;2023-08-08T00:46:39;101691.06;;;17.87;64.40
47716;BME280;33476;50.984;3.538;2023-08-08T00:49:04;101687.75;;;17.84;64.70
47716;BME280;33476;50.984;3.538;2023-08-08T00:51:30;101678.13;;;17.83;64.72
47716;BME280;33476;50.984;3.538;2023-08-08T00:53:56;101683.31;;;17.84;64.88
47716;BME280;33476;50.984;3.538;2023-08-08T00:56:22;101679.72;;;17.85;65.07
47716;BME280;33476;50.984;3.538;2023-08-08T00:58:48;101681.53;;;17.85;65.09
47716;BME280;33476;50.984;3.538;2023-08-08T01:01:17;101678.34;;;17.80;65.28
47716;BME280;33476;50.984;3.538;2023-08-08T01:03:42;101678.63;;;17.75;65.60
47716;BME280;33476;50.984;3.538;2023-08-08T01:06:25;101667.50;;;17.70;65.84
47716;BME280;33476;50.984;3.538;2023-08-08T01:08:58;101667.56;;;17.68;65.84
47716;BME280;33476;50.984;3.538;2023-08-08T01:11:28;101672.84;;;17.68;65.94
47716;BME280;33476;50.984;3.538;2023-08-08T01:13:54;101672.97;;;17.67;65.96
47716;BME280;33476;50.984;3.538;2023-08-08T01:16:21;101669.38;;;17.68;65.88
47716;BME280;33476;50.984;3.538;2023-08-08T01:18:47;101670.31;;;17.67;65.80
47716;BME280;33476;50.984;3.538;2023-08-08T01:21:15;101666.72;;;17.68;66.05
47716;BME280;33476;50.984;3.538;2023-08-08T01:23:45;101669.38;;;17.68;66.19
47716;BME280;33476;50.984;3.538;2023-08-08T01:26:12;101671.00;;;17.71;66.05
47716;BME280;33476;50.984;3.538;2023-08-08T01:28:38;101672.00;;;17.68;66.10
47716;BME280;33476;50.984;3.538;2023-08-08T01:31:03;101675.03;;;17.62;66.36
47716;BME280;33476;50.984;3.538;2023-08-08T01:33:29;101682.22;;;17.60;66.59
47716;BME280;33476;50.984;3.538;2023-08-08T01:35:59;101671.00;;;17.56;66.80
47716;BME280;33476;50.984;3.538;2023-08-08T01:38:33;101669.97;;;17.59;66.63
47716;BME280;33476;50.984;3.538;2023-08-08T01:41:01;101663.63;;;17.61;66.35
47716;BME280;33476;50.984;3.538;2023-08-08T01:43:30;101660.25;;;17.59;66.61
47716;BME280;33476;50.984;3.538;2023-08-08T01:45:56;101662.03;;;17.59;66.73
47716;BME280;33476;50.984;3.538;2023-08-08T01:48:22;101667.31;;;17.59;66.80
47716;BME280;33476;50.984;3.538;2023-08-08T01:50:47;101661.41;;;17.55;66.87
47716;BME280;33476;50.984;3.538;2023-08-08T01:53:13;101659.72;;;17.54;66.88
47716;BME280;33476;50.984;3.538;2023-08-08T01:55:38;101659.59;;;17.56;66.80
47716;BME280;33476;50.984;3.538;2023-08-08T01:58:04;101658.09;;;17.52;67.04
47716;BME280;33476;50.984;3.538;2023-08-08T02:00:29;101647.53;;;17.52;67.05
47716;BME280;33476;50.984;3.538;2023-08-08T02:02:54;101646.50;;;17.54;66.92
47716;BME280;33476;50.984;3.538;2023-08-08T02:05:20;101653.47;;;17.55;66.67
47716;BME280;33476;50.984;3.538;2023-08-08T02:07:45;101652.53;;;17.56;66.77
47716;BME280;33476;50.984;3.538;2023-08-08T02:10:11;101643.84;;;17.54;66.77
47716;BME280;33476;50.984;3.538;2023-08-08T02:12:36;101644.03;;;17.51;66.94
47716;BME280;33476;50.984;3.538;2023-08-08T02:15:01;101643.28;;;17.49;66.97
47716;BME280;33476;50.984;3.538;2023-08-08T02:17:27;101640.75;;;17.48;67.05
47716;BME280;33476;50.984;3.538;2023-08-08T02:19:52;101641.78;;;17.45;67.07
47716;BME280;33476;50.984;3.538;2023-08-08T02:22:18;101646.22;;;17.45;67.09
47716;BME280;33476;50.984;3.538;2023-08-08T02:24:44;101647.06;;;17.45;67.13
47716;BME280;33476;50.984;3.538;2023-08-08T02:27:11;101644.25;;;17.48;66.76
47716;BME280;33476;50.984;3.538;2023-08-08T02:29:36;101645.25;;;17.46;66.92
47716;BME280;33476;50.984;3.538;2023-08-08T02:32:02;101640.94;;;17.45;67.01
47716;BME280;33476;50.984;3.538;2023-08-08T02:34:27;101645.56;;;17.41;67.15
47716;BME280;33476;50.984;3.538;2023-08-08T02:36:52;101632.75;;;17.35;67.39
47716;BME280;33476;50.984;3.538;2023-08-08T02:39:18;101631.91;;;17.34;67.34
47716;BME280;33476;50.984;3.538;2023-08-08T02:41:43;101631.34;;;17.29;67.42
47716;BME280;33476;50.984;3.538;2023-08-08T02:44:09;101627.94;;;17.27;67.72
47716;BME280;33476;50.984;3.538;2023-08-08T02:46:34;101625.13;;;17.30;67.55
47716;BME280;33476;50.984;3.538;2023-08-08T02:48:59;101629.56;;;17.30;67.50
47716;BME280;33476;50.984;3.538;2023-08-08T02:51:25;101631.44;;;17.28;67.70
47716;BME280;33476;50.984;3.538;2023-08-08T02:53:50;101635.34;;;17.22;67.86
47716;BME280;33476;50.984;3.538;2023-08-08T02:56:15;101637.13;;;17.22;68.13
47716;BME280;33476;50.984;3.538;2023-08-08T02:58:41;101635.41;;;17.21;68.10
47716;BME280;33476;50.984;3.538;2023-08-08T03:01:06;101631.63;;;17.25;67.97
47716;BME280;33476;50.984;3.538;2023-08-08T03:03:32;101635.22;;;17.24;67.99
47716;BME280;33476;50.984;3.538;2023-08-08T03:05:57;101633.44;;;17.24;68.03
47716;BME280;33476;50.984;3.538;2023-08-08T03:08:22;101627.94;;;17.27;68.17
47716;BME280;33476;50.984;3.538;2023-08-08T03:10:49;101636.72;;;17.28;67.93
47716;BME280;33476;50.984;3.538;2023-08-08T03:13:14;101633.44;;;17.24;68.09
47716;BME280;33476;50.984;3.538;2023-08-08T03:15:39;101639.66;;;17.23;68.49
47716;BME280;33476;50.984;3.538;2023-08-08T03:18:05;101628.25;;;17.23;68.50
47716;BME280;33476;50.984;3.538;2023-08-08T03:20:30;101633.72;;;17.20;68.67
47716;BME280;33476;50.984;3.538;2023-08-08T03:22:56;101629.47;;;17.17;68.87
47716;BME280;33476;50.984;3.538;2023-08-08T03:25:21;101627.47;;;17.21;68.75
47716;BME280;33476;50.984;3.538;2023-08-08T03:27:46;101622.19;;;17.21;68.68
47716;BME280;33476;50.984;3.538;2023-08-08T03:30:12;101623.81;;;17.23;68.56
47716;BME280;33476;50.984;3.538;2023-08-08T03:32:38;101620.22;;;17.24;68.72
47716;BME280;33476;50.984;3.538;2023-08-08T03:35:04;101620.13;;;17.26;68.57
47716;BME280;33476;50.984;3.538;2023-08-08T03:37:30;101622.78;;;17.26;68.56
47716;BME280;33476;50.984;3.538;2023-08-08T03:39:55;101620.22;;;17.24;68.55
47716;BME280;33476;50.984;3.538;2023-08-08T03:42:20;101621.09;;;17.25;68.60
47716;BME280;33476;50.984;3.538;2023-08-08T03:44:46;101622.03;;;17.24;68.68
47716;BME280;33476;50.984;3.538;2023-08-08T03:47:11;101621.09;;;17.25;68.61
47716;BME280;33476;50.984;3.538;2023-08-08T03:49:37;101615.81;;;17.25;68.72
47716;BME280;33476;50.984;3.538;2023-08-08T03:52:02;101607.88;;;17.25;68.60
47716;BME280;33476;50.984;3.538;2023-08-08T03:54:28;101608.63;;;17.27;68.50
47716;BME280;33476;50.984;3.538;2023-08-08T03:56:53;101614.22;;;17.22;68.48
47716;BME280;33476;50.984;3.538;2023-08-08T03:59:19;101609.00;;;17.21;68.61
47716;BME280;33476;50.984;3.538;2023-08-08T04:01:44;101616.91;;;17.21;68.64
47716;BME280;33476;50.984;3.538;2023-08-08T04:04:10;101616.06;;;17.20;68.67
47716;BME280;33476;50.984;3.538;2023-08-08T04:06:35;101611.66;;;17.21;68.49
47716;BME280;33476;50.984;3.538;2023-08-08T04:09:00;101610.91;;;17.19;68.43
47716;BME280;33476;50.984;3.538;2023-08-08T04:11:26;101617.88;;;17.20;68.51
47716;BME280;33476;50.984;3.538;2023-08-08T04:13:52;101614.50;;;17.18;68.37
47716;BME280;33476;50.984;3.538;2023-08-08T04:16:17;101619.88;;;17.16;68.49
47716;BME280;33476;50.984;3.538;2023-08-08T04:18:43;101628.75;;;17.15;68.36
47716;BME280;33476;50.984;3.538;2023-08-08T04:21:08;101623.72;;;17.10;68.61
47716;BME280;33476;50.984;3.538;2023-08-08T04:23:34;101618.66;;;17.07;68.76
47716;BME280;33476;50.984;3.538;2023-08-08T04:26:00;101618.56;;;17.09;68.95
47716;BME280;33476;50.984;3.538;2023-08-08T04:28:25;101623.72;;;17.10;68.79
47716;BME280;33476;50.984;3.538;2023-08-08T04:30:50;101628.16;;;17.10;68.67
47716;BME280;33476;50.984;3.538;2023-08-08T04:33:16;101623.00;;;17.08;68.80
47716;BME280;33476;50.984;3.538;2023-08-08T04:35:41;101626.47;;;17.09;68.62
47716;BME280;33476;50.984;3.538;2023-08-08T04:38:06;101631.00;;;17.07;68.82
47716;BME280;33476;50.984;3.538;2023-08-08T04:40:32;101634.66;;;17.04;69.11
47716;BME280;33476;50.984;3.538;2023-08-08T04:42:57;101622.41;;;17.03;69.10
47716;BME280;33476;50.984;3.538;2023-08-08T04:45:23;101621.56;;;17.03;69.03
47716;BME280;33476;50.984;3.538;2023-08-08T04:47:48;101625.63;;;17.08;69.02
47716;BME280;33476;50.984;3.538;2023-08-08T04:50:13;101630.69;;;17.11;68.87
47716;BME280;33476;50.984;3.538;2023-08-08T04:52:39;101628.84;;;17.13;68.75
47716;BME280;33476;50.984;3.538;2023-08-08T04:55:05;101624.47;;;17.12;68.91
47716;BME280;33476;50.984;3.538;2023-08-08T04:57:30;101626.19;;;17.13;68.89
47716;BME280;33476;50.984;3.538;2023-08-08T04:59:56;101620.72;;;17.17;69.03
47716;BME280;33476;50.984;3.538;2023-08-08T05:02:21;101617.03;;;17.19;68.97
47716;BME280;33476;50.984;3.538;2023-08-08T05:04:47;101615.22;;;17.20;69.23
47716;BME280;33476;50.984;3.538;2023-08-08T05:07:12;101619.50;;;17.22;69.17
47716;BME280;33476;50.984;3.538;2023-08-08T05:09:37;101613.81;;;17.28;68.98
47716;BME280;33476;50.984;3.538;2023-08-08T05:12:03;101618.22;;;17.28;69.07
47716;BME280;33476;50.984;3.538;2023-08-08T05:14:29;101622.41;;;17.32;68.98
47716;BME280;33476;50.984;3.538;2023-08-08T05:16:54;101622.94;;;17.37;68.92
47716;BME280;33476;50.984;3.538;2023-08-08T05:19:20;101628.97;;;17.39;68.93
47716;BME280;33476;50.984;3.538;2023-08-08T05:21:45;101626.53;;;17.36;69.09
47716;BME280;33476;50.984;3.538;2023-08-08T05:24:10;101626.81;;;17.31;69.21
47716;BME280;33476;50.984;3.538;2023-08-08T05:26:36;101621.25;;;17.36;69.28
47716;BME280;33476;50.984;3.538;2023-08-08T05:29:01;101630.69;;;17.40;69.25
47716;BME280;33476;50.984;3.538;2023-08-08T05:31:27;101633.22;;;17.41;69.26
47716;BME280;33476;50.984;3.538;2023-08-08T05:33:53;101627.19;;;17.39;69.39
47716;BME280;33476;50.984;3.538;2023-08-08T05:36:18;101627.94;;;17.41;69.25
47716;BME280;33476;50.984;3.538;2023-08-08T05:38:43;101629.63;;;17.42;69.37
47716;BME280;33476;50.984;3.538;2023-08-08T05:41:09;101627.72;;;17.45;69.32
47716;BME280;33476;50.984;3.538;2023-08-08T05:43:34;101632.63;;;17.51;69.27
47716;BME280;33476;50.984;3.538;2023-08-08T05:46:00;101628.84;;;17.55;69.23
47716;BME280;33476;50.984;3.538;2023-08-08T05:48:26;101627.81;;;17.57;69.11
47716;BME280;33476;50.984;3.538;2023-08-08T05:50:51;101635.50;;;17.60;69.27
47716;BME280;33476;50.984;3.538;2023-08-08T05:53:16;101634.66;;;17.60;69.10
47716;BME280;33476;50.984;3.538;2023-08-08T05:55:42;101639.84;;;17.61;69.14
47716;BME280;33476;50.984;3.538;2023-08-08T05:58:08;101630.13;;;17.62;69.38
47716;BME280;33476;50.984;3.538;2023-08-08T06:00:33;101622.13;;;17.63;69.40
47716;BME280;33476;50.984;3.538;2023-08-08T06:03:00;101624.31;;;17.71;69.23
47716;BME280;33476;50.984;3.538;2023-08-08T06:05:25;101630.84;;;17.78;68.90
47716;BME280;33476;50.984;3.538;2023-08-08T06:07:51;101636.59;;;17.85;68.66
47716;BME280;33476;50.984;3.538;2023-08-08T06:10:16;101636.94;;;17.93;68.48
47716;BME280;33476;50.984;3.538;2023-08-08T06:12:42;101638.03;;;18.03;68.27
47716;BME280;33476;50.984;3.538;2023-08-08T06:15:07;101637.63;;;18.09;68.15
47716;BME280;33476;50.984;3.538;2023-08-08T06:17:33;101640.41;;;18.20;68.00
47716;BME280;33476;50.984;3.538;2023-08-08T06:19:59;101638.00;;;18.30;67.66
47716;BME280;33476;50.984;3.538;2023-08-08T06:22:24;101624.34;;;18.36;67.52
47716;BME280;33476;50.984;3.538;2023-08-08T06:24:50;101629.88;;;18.46;67.34
47716;BME280;33476;50.984;3.538;2023-08-08T06:27:16;101628.28;;;18.56;67.46
47716;BME280;33476;50.984;3.538;2023-08-08T06:29:42;101631.44;;;18.61;67.30
47716;BME280;33476;50.984;3.538;2023-08-08T06:32:07;101634.38;;;18.71;67.19
47716;BME280;33476;50.984;3.538;2023-08-08T06:34:32;101637.34;;;18.79;67.16
47716;BME280;33476;50.984;3.538;2023-08-08T06:36:58;101636.47;;;18.91;66.59
47716;BME280;33476;50.984;3.538;2023-08-08T06:39:24;101640.16;;;19.01;66.34
47716;BME280;33476;50.984;3.538;2023-08-08T06:41:50;101634.75;;;19.03;66.14
47716;BME280;33476;50.984;3.538;2023-08-08T06:44:15;101635.63;;;19.03;65.96
47716;BME280;33476;50.984;3.538;2023-08-08T06:46:40;101641.63;;;19.05;65.93
47716;BME280;33476;50.984;3.538;2023-08-08T06:49:06;101630.75;;;18.97;66.09
47716;BME280;33476;50.984;3.538;2023-08-08T06:51:32;101628.81;;;18.99;65.78
47716;BME280;33476;50.984;3.538;2023-08-08T06:53:57;101634.84;;;19.01;65.72
47716;BME280;33476;50.984;3.538;2023-08-08T06:56:23;101641.75;;;19.04;65.67
47716;BME280;33476;50.984;3.538;2023-08-08T06:58:48;101632.63;;;19.08;65.63
47716;BME280;33476;50.984;3.538;2023-08-08T07:01:14;101628.72;;;19.14;65.35
47716;BME280;33476;50.984;3.538;2023-08-08T07:03:39;101633.03;;;19.15;65.67
47716;BME280;33476;50.984;3.538;2023-08-08T07:06:05;101630.81;;;19.21;65.24
47716;BME280;33476;50.984;3.538;2023-08-08T07:08:31;101626.00;;;19.26;65.02
47716;BME280;33476;50.984;3.538;2023-08-08T07:10:57;101636.06;;;19.34;64.71
47716;BME280;33476;50.984;3.538;2023-08-08T07:13:23;101627.69;;;19.40;64.58
47716;BME280;33476;50.984;3.538;2023-08-08T07:15:48;101629.25;;;19.43;64.46
47716;BME280;33476;50.984;3.538;2023-08-08T07:18:14;101625.56;;;19.45;64.16
47716;BME280;33476;50.984;3.538;2023-08-08T07:20:40;101627.97;;;19.48;63.81
47716;BME280;33476;50.984;3.538;2023-08-08T07:23:05;101622.66;;;19.48;63.63
47716;BME280;33476;50.984;3.538;2023-08-08T07:25:31;101620.88;;;19.49;63.81
47716;BME280;33476;50.984;3.538;2023-08-08T07:27:57;101618.34;;;19.47;63.55
47716;BME280;33476;50.984;3.538;2023-08-08T07:30:22;101615.44;;;19.50;63.61
47716;BME280;33476;50.984;3.538;2023-08-08T07:32:48;101623.00;;;19.56;63.28
47716;BME280;33476;50.984;3.538;2023-08-08T07:35:13;101619.16;;;19.60;62.96
47716;BME280;33476;50.984;3.538;2023-08-08T07:37:40;101619.53;;;19.67;62.58
47716;BME280;33476;50.984;3.538;2023-08-08T07:40:19;101622.84;;;19.71;62.57
47716;BME280;33476;50.984;3.538;2023-08-08T07:42:46;101618.78;;;19.78;62.34
47716;BME280;33476;50.984;3.538;2023-08-08T07:45:12;101623.72;;;19.82;61.95
47716;BME280;33476;50.984;3.538;2023-08-08T07:47:37;101614.34;;;19.89;62.01
47716;BME280;33476;50.984;3.538;2023-08-08T07:50:03;101609.66;;;19.93;61.51
47716;BME280;33476;50.984;3.538;2023-08-08T07:52:28;101611.97;;;19.98;61.21
47716;BME280;33476;50.984;3.538;2023-08-08T07:54:54;101609.09;;;20.01;61.28
47716;BME280;33476;50.984;3.538;2023-08-08T07:57:19;101609.16;;;20.12;61.22
47716;BME280;33476;50.984;3.538;2023-08-08T07:59:44;101613.63;;;20.23;60.96
47716;BME280;33476;50.984;3.538;2023-08-08T08:02:10;101615.72;;;20.41;60.63
47716;BME280;33476;50.984;3.538;2023-08-08T08:04:35;101618.56;;;20.62;59.94
47716;BME280;33476;50.984;3.538;2023-08-08T08:07:01;101610.59;;;20.85;59.89
47716;BME280;33476;50.984;3.538;2023-08-08T08:09:27;101612.66;;;21.03;59.52
47716;BME280;33476;50.984;3.538;2023-08-08T08:11:52;101608.88;;;21.17;59.19
47716;BME280;33476;50.984;3.538;2023-08-08T08:14:18;101613.41;;;21.28;58.48
47716;BME280;33476;50.984;3.538;2023-08-08T08:16:44;101610.13;;;21.36;58.06
47716;BME280;33476;50.984;3.538;2023-08-08T08:19:10;101619.03;;;21.46;57.83
47716;BME280;33476;50.984;3.538;2023-08-08T08:21:35;101615.88;;;21.52;57.25
47716;BME280;33476;50.984;3.538;2023-08-08T08:24:01;101619.00;;;21.57;57.24
47716;BME280;33476;50.984;3.538;2023-08-08T08:26:27;101620.44;;;21.61;56.62
47716;BME280;33476;50.984;3.538;2023-08-08T08:28:54;101616.41;;;21.67;56.74
47716;BME280;33476;50.984;3.538;2023-08-08T08:31:19;101612.69;;;21.69;56.21
47716;BME280;33476;50.984;3.538;2023-08-08T08:33:44;101623.69;;;21.65;55.82
47716;BME280;33476;50.984;3.538;2023-08-08T08:36:10;101617.44;;;21.54;55.88
47716;BME280;33476;50.984;3.538;2023-08-08T08:38:36;101620.72;;;21.47;55.45
47716;BME280;33476;50.984;3.538;2023-08-08T08:41:02;101628.94;;;21.44;55.71
47716;BME280;33476;50.984;3.538;2023-08-08T08:43:28;101617.72;;;21.40;55.75
47716;BME280;33476;50.984;3.538;2023-08-08T08:45:54;101618.09;;;21.36;55.61
47716;BME280;33476;50.984;3.538;2023-08-08T08:48:21;101619.41;;;21.30;55.71
47716;BME280;33476;50.984;3.538;2023-08-08T08:50:49;101617.88;;;21.27;55.16
47716;BME280;33476;50.984;3.538;2023-08-08T08:53:15;101617.13;;;21.37;55.25
47716;BME280;33476;50.984;3.538;2023-08-08T08:55:41;101611.50;;;21.51;54.74
47716;BME280;33476;50.984;3.538;2023-08-08T08:58:06;101608.22;;;21.70;54.69
47716;BME280;33476;50.984;3.538;2023-08-08T09:00:32;101612.78;;;21.79;54.12
47716;BME280;33476;50.984;3.538;2023-08-08T09:02:59;101622.78;;;21.86;53.51
47716;BME280;33476;50.984;3.538;2023-08-08T09:05:25;101633.00;;;21.91;52.98
47716;BME280;33476;50.984;3.538;2023-08-08T09:07:51;101635.88;;;21.99;52.03
47716;BME280;33476;50.984;3.538;2023-08-08T09:10:17;101632.88;;;21.93;51.73
47716;BME280;33476;50.984;3.538;2023-08-08T09:12:43;101633.00;;;21.91;52.21
47716;BME280;33476;50.984;3.538;2023-08-08T09:15:10;101633.63;;;21.95;52.75
47716;BME280;33476;50.984;3.538;2023-08-08T09:17:36;101636.16;;;21.96;52.09
47716;BME280;33476;50.984;3.538;2023-08-08T09:20:01;101643.72;;;22.01;50.78
47716;BME280;33476;50.984;3.538;2023-08-08T09:22:29;101643.50;;;22.04;50.22
47716;BME280;33476;50.984;3.538;2023-08-08T09:24:54;101641.53;;;22.06;49.91
47716;BME280;33476;50.984;3.538;2023-08-08T09:27:20;101650.50;;;22.05;50.22
47716;BME280;33476;50.984;3.538;2023-08-08T09:29:46;101643.84;;;21.99;50.16
47716;BME280;33476;50.984;3.538;2023-08-08T09:32:11;101650.88;;;22.00;49.63
47716;BME280;33476;50.984;3.538;2023-08-08T09:34:41;101649.44;;;21.96;49.31
47716;BME280;33476;50.984;3.538;2023-08-08T09:37:06;101641.13;;;21.90;49.55
47716;BME280;33476;50.984;3.538;2023-08-08T09:39:31;101629.38;;;21.92;49.89
47716;BME280;33476;50.984;3.538;2023-08-08T09:41:57;101631.63;;;22.08;50.52
47716;BME280;33476;50.984;3.538;2023-08-08T09:44:23;101638.00;;;22.17;50.06
47716;BME280;33476;50.984;3.538;2023-08-08T09:46:50;101638.53;;;22.10;50.14
47716;BME280;33476;50.984;3.538;2023-08-08T09:49:15;101640.00;;;22.03;50.23
47716;BME280;33476;50.984;3.538;2023-08-08T09:51:41;101646.53;;;21.99;49.35
47716;BME280;33476;50.984;3.538;2023-08-08T09:54:08;101637.75;;;21.87;49.74
47716;BME280;33476;50.984;3.538;2023-08-08T09:56:34;101647.06;;;21.82;49.38
47716;BME280;33476;50.984;3.538;2023-08-08T09:59:01;101646.50;;;21.78;49.42
47716;BME280;33476;50.984;3.538;2023-08-08T10:01:26;101654.38;;;21.69;49.34
47716;BME280;33476;50.984;3.538;2023-08-08T10:03:52;101655.22;;;21.69;49.69
47716;BME280;33476;50.984;3.538;2023-08-08T10:06:18;101655.31;;;21.79;49.83
47716;BME280;33476;50.984;3.538;2023-08-08T10:08:45;101655.53;;;21.76;49.47
47716;BME280;33476;50.984;3.538;2023-08-08T10:11:11;101651.34;;;21.73;49.09
47716;BME280;33476;50.984;3.538;2023-08-08T10:13:38;101653.28;;;21.71;49.30
47716;BME280;33476;50.984;3.538;2023-08-08T10:16:07;101641.19;;;21.78;49.30
47716;BME280;33476;50.984;3.538;2023-08-08T10:18:33;101647.34;;;21.79;48.58
47716;BME280;33476;50.984;3.538;2023-08-08T10:20:59;101642.38;;;21.74;47.99
47716;BME280;33476;50.984;3.538;2023-08-08T10:23:25;101651.34;;;21.73;48.58
47716;BME280;33476;50.984;3.538;2023-08-08T10:25:51;101641.41;;;21.75;48.19
47716;BME280;33476;50.984;3.538;2023-08-08T10:28:20;101630.00;;;21.84;48.20
47716;BME280;33476;50.984;3.538;2023-08-08T10:30:58;101624.16;;;22.02;48.15
47716;BME280;33476;50.984;3.538;2023-08-08T10:33:38;101621.72;;;22.31;47.35
47716;BME280;33476;50.984;3.538;2023-08-08T10:36:06;101628.75;;;22.53;45.62
47716;BME280;33476;50.984;3.538;2023-08-08T10:38:52;101628.50;;;22.65;45.89
47716;BME280;33476;50.984;3.538;2023-08-08T10:41:21;101622.72;;;22.81;45.53
47716;BME280;33476;50.984;3.538;2023-08-08T10:43:57;101623.41;;;22.83;45.41
47716;BME280;33476;50.984;3.538;2023-08-08T10:46:33;101630.53;;;22.94;45.46
47716;BME280;33476;50.984;3.538;2023-08-08T10:49:01;101629.25;;;22.98;44.71
47716;BME280;33476;50.984;3.538;2023-08-08T10:51:36;101629.53;;;22.95;45.58
47716;BME280;33476;50.984;3.538;2023-08-08T10:54:26;101625.22;;;23.04;45.80
47716;BME280;33476;50.984;3.538;2023-08-08T10:56:55;101620.22;;;23.10;45.65
47716;BME280;33476;50.984;3.538;2023-08-08T10:59:26;101618.53;;;23.09;45.13
47716;BME280;33476;50.984;3.538;2023-08-08T11:01:53;101627.03;;;23.03;45.34
47716;BME280;33476;50.984;3.538;2023-08-08T11:04:20;101626.59;;;22.98;44.96
47716;BME280;33476;50.984;3.538;2023-08-08T11:06:47;101623.38;;;22.94;45.20
47716;BME280;33476;50.984;3.538;2023-08-08T11:09:13;101627.03;;;23.03;45.53
47716;BME280;33476;50.984;3.538;2023-08-08T11:11:40;101622.03;;;23.10;44.75
47716;BME280;33476;50.984;3.538;2023-08-08T11:14:11;101620.22;;;23.10;44.67
47716;BME280;33476;50.984;3.538;2023-08-08T11:16:36;101626.84;;;23.25;45.34
47716;BME280;33476;50.984;3.538;2023-08-08T11:19:02;101620.09;;;23.31;45.21
47716;BME280;33476;50.984;3.538;2023-08-08T11:21:28;101608.19;;;23.25;44.30
47716;BME280;33476;50.984;3.538;2023-08-08T11:23:53;101615.72;;;23.11;45.16
47716;BME280;33476;50.984;3.538;2023-08-08T11:26:19;101618.63;;;23.08;45.21
47716;BME280;33476;50.984;3.538;2023-08-08T11:28:53;101621.22;;;22.88;44.88
47716;BME280;33476;50.984;3.538;2023-08-08T11:31:20;101620.53;;;22.86;45.03
47716;BME280;33476;50.984;3.538;2023-08-08T11:33:50;101619.91;;;22.83;45.36
47716;BME280;33476;50.984;3.538;2023-08-08T11:36:15;101617.03;;;22.86;45.69
47716;BME280;33476;50.984;3.538;2023-08-08T11:38:42;101615.06;;;22.88;46.09
47716;BME280;33476;50.984;3.538;2023-08-08T11:41:10;101615.06;;;22.88;45.55
47716;BME280;33476;50.984;3.538;2023-08-08T11:43:37;101611.56;;;22.87;45.35
47716;BME280;33476;50.984;3.538;2023-08-08T11:46:03;101604.91;;;22.82;45.39
47716;BME280;33476;50.984;3.538;2023-08-08T11:48:32;101614.09;;;22.89;45.76
47716;BME280;33476;50.984;3.538;2023-08-08T11:50:57;101612.19;;;23.01;45.47
47716;BME280;33476;50.984;3.538;2023-08-08T11:53:23;101610.38;;;23.11;45.50
47716;BME280;33476;50.984;3.538;2023-08-08T11:55:48;101604.50;;;23.17;45.46
47716;BME280;33476;50.984;3.538;2023-08-08T11:58:14;101602.00;;;23.25;45.03
47716;BME280;33476;50.984;3.538;2023-08-08T12:00:40;101607.38;;;23.35;44.52
47716;BME280;33476;50.984;3.538;2023-08-08T12:03:07;101605.84;;;23.42;44.46
47716;BME280;33476;50.984;3.538;2023-08-08T12:05:37;101600.06;;;23.46;44.21
47716;BME280;33476;50.984;3.538;2023-08-08T12:08:05;101607.38;;;23.44;44.08
47716;BME280;33476;50.984;3.538;2023-08-08T12:10:31;101597.41;;;23.37;44.08
47716;BME280;33476;50.984;3.538;2023-08-08T12:12:57;101601.16;;;23.24;44.46
47716;BME280;33476;50.984;3.538;2023-08-08T12:15:34;101588.50;;;23.17;44.33
47716;BME280;33476;50.984;3.538;2023-08-08T12:18:01;101586.72;;;23.27;44.68
47716;BME280;33476;50.984;3.538;2023-08-08T12:20:28;101581.41;;;23.37;44.21
47716;BME280;33476;50.984;3.538;2023-08-08T12:22:55;101582.41;;;23.45;44.13
47716;BME280;33476;50.984;3.538;2023-08-08T12:25:20;101568.22;;;23.54;44.55
47716;BME280;33476;50.984;3.538;2023-08-08T12:27:46;101584.22;;;23.54;44.02
47716;BME280;33476;50.984;3.538;2023-08-08T12:30:11;101585.63;;;23.49;44.06
47716;BME280;33476;50.984;3.538;2023-08-08T12:32:37;101585.91;;;23.55;44.71
47716;BME280;33476;50.984;3.538;2023-08-08T12:35:03;101586.53;;;23.78;44.69
47716;BME280;33476;50.984;3.538;2023-08-08T12:37:28;101583.16;;;23.86;44.59
47716;BME280;33476;50.984;3.538;2023-08-08T12:39:54;101551.25;;;24.04;43.58
47716;BME280;33476;50.984;3.538;2023-08-08T12:42:19;101540.69;;;24.12;43.42
47716;BME280;33476;50.984;3.538;2023-08-08T12:44:45;101539.09;;;24.29;43.19